Time;durP1;ratioP1;P1;durP2;ratioP2;P2;SDS_P1;SDS_P2;PMS_P1;PMS_P2;Temp;Humidity;BMP_temperature;BMP_pressure;BME280_temperature;BME280_humidity;BME280_pressure;Samples;Min_cycle;Max_cycle;Signal;HPM_P1;HPM_P2
2023/02/03 00:00:50;;;;;;;5.80;2.10;;;;;;;;;;4976245;28;20028;-75
2023/02/03 00:03:16;;;;;;;6.00;1.90;;;;;;;;;;4975963;28;20126;-74
2023/02/03 00:05:43;;;;;;;6.72;1.65;;;;;;;;;;4979026;28;20063;-74
2023/02/03 00:08:09;;;;;;;7.35;2.15;;;;;;;;;;4980358;28;20069;-75
2023/02/03 00:10:36;;;;;;;5.13;1.75;;;;;;;;;;4979519;28;20026;-75
2023/02/03 00:13:02;;;;;;;6.82;2.22;;;;;;;;;;4972448;28;20038;-76
2023/02/03 00:15:29;;;;;;;7.43;2.17;;;;;;;;;;4978409;28;20030;-75
2023/02/03 00:17:55;;;;;;;5.40;1.98;;;;;;;;;;4976755;28;20025;-74
2023/02/03 00:20:22;;;;;;;5.90;2.20;;;;;;;;;;4976363;28;20039;-74
2023/02/03 00:22:48;;;;;;;7.93;2.20;;;;;;;;;;4979648;28;20200;-75
2023/02/03 00:25:14;;;;;;;7.75;2.40;;;;;;;;;;4982899;28;20093;-75
2023/02/03 00:27:41;;;;;;;5.03;1.75;;;;;;;;;;4982227;28;20041;-74
2023/02/03 00:30:07;;;;;;;5.50;1.88;;;;;;;;;;4981220;28;20065;-76
2023/02/03 00:32:33;;;;;;;5.20;2.30;;;;;;;;;;4984124;28;20046;-73
2023/02/03 00:34:59;;;;;;;6.80;2.33;;;;;;;;;;4983920;28;20097;-75
2023/02/03 00:37:26;;;;;;;7.72;2.10;;;;;;;;;;4996220;28;20066;-75
2023/02/03 00:39:52;;;;;;;7.05;1.92;;;;;;;;;;4983127;28;20054;-76
2023/02/03 00:42:18;;;;;;;6.15;1.67;;;;;;;;;;4984048;28;20058;-75
2023/02/03 00:44:44;;;;;;;6.53;1.60;;;;;;;;;;4979412;28;20034;-75
2023/02/03 00:47:10;;;;;;;2.92;1.40;;;;;;;;;;4985441;28;20443;-75
2023/02/03 00:49:37;;;;;;;5.13;2.42;;;;;;;;;;4977911;28;20041;-74
2023/02/03 00:52:03;;;;;;;5.25;1.75;;;;;;;;;;4979280;28;20044;-74
2023/02/03 00:54:29;;;;;;;5.72;2.22;;;;;;;;;;4973734;28;20059;-75
2023/02/03 00:56:55;;;;;;;4.32;1.77;;;;;;;;;;4978768;28;20023;-76
2023/02/03 00:59:22;;;;;;;10.18;2.25;;;;;;;;;;4981079;28;20062;-75
2023/02/03 01:01:49;;;;;;;5.05;1.98;;;;;;;;;;4979260;28;20050;-76
2023/02/03 01:04:16;;;;;;;6.50;1.95;;;;;;;;;;4994194;28;20030;-75
2023/02/03 01:06:44;;;;;;;3.63;1.60;;;;;;;;;;4985091;28;20612;-75
2023/02/03 01:09:11;;;;;;;7.18;2.03;;;;;;;;;;4975600;28;20122;-74
2023/02/03 01:11:37;;;;;;;7.15;2.05;;;;;;;;;;4982499;28;20069;-74
2023/02/03 01:14:03;;;;;;;9.40;2.00;;;;;;;;;;4978782;28;20645;-74
2023/02/03 01:16:30;;;;;;;6.38;1.88;;;;;;;;;;4992538;28;20415;-75
2023/02/03 01:18:57;;;;;;;7.07;1.77;;;;;;;;;;4983371;28;20041;-75
2023/02/03 01:21:24;;;;;;;4.97;1.83;;;;;;;;;;4980774;28;20054;-75
2023/02/03 01:23:50;;;;;;;4.15;1.80;;;;;;;;;;4978729;28;20034;-75
2023/02/03 01:26:18;;;;;;;6.57;2.05;;;;;;;;;;4976289;28;20089;-75
2023/02/03 01:28:49;;;;;;;6.38;2.20;;;;;;;;;;4982772;28;20133;-74
2023/02/03 01:31:17;;;;;;;11.10;2.60;;;;;;;;;;4978916;28;20045;-75
2023/02/03 01:33:47;;;;;;;3.03;1.60;;;;;;;;;;4980541;28;20106;-75
2023/02/03 01:36:17;;;;;;;4.13;2.30;;;;;;;;;;4980524;28;20027;-75
2023/02/03 01:38:45;;;;;;;4.18;1.58;;;;;;;;;;4980818;28;20637;-75
2023/02/03 01:41:13;;;;;;;4.22;2.13;;;;;;;;;;4977771;28;20126;-75
2023/02/03 01:43:44;;;;;;;3.55;1.60;;;;;;;;;;4982075;28;20109;-75
2023/02/03 01:46:30;;;;;;;13.00;2.42;;;;;;;;;;4980527;28;20022;-76
2023/02/03 01:49:11;;;;;;;6.30;2.08;;;;;;;;;;4984294;28;20074;-75
2023/02/03 01:51:38;;;;;;;5.85;1.92;;;;;;;;;;4984249;28;20101;-75
2023/02/03 01:54:05;;;;;;;6.32;1.77;;;;;;;;;;4978101;28;20054;-75
2023/02/03 01:56:33;;;;;;;6.28;2.35;;;;;;;;;;4984336;28;20079;-75
2023/02/03 01:58:59;;;;;;;5.00;2.00;;;;;;;;;;4981251;28;20053;-75
2023/02/03 02:01:26;;;;;;;4.70;2.13;;;;;;;;;;4985447;28;20029;-75
2023/02/03 02:03:54;;;;;;;5.68;2.22;;;;;;;;;;4981064;28;20046;-75
2023/02/03 02:06:21;;;;;;;8.75;1.90;;;;;;;;;;4982896;28;20058;-75
2023/02/03 02:08:50;;;;;;;5.47;2.22;;;;;;;;;;4980638;28;20113;-75
2023/02/03 02:11:19;;;;;;;7.43;1.80;;;;;;;;;;4982433;28;20037;-75
2023/02/03 02:13:45;;;;;;;4.80;2.10;;;;;;;;;;4980695;28;20036;-73
2023/02/03 02:16:16;;;;;;;7.93;2.15;;;;;;;;;;4983784;28;20451;-74
2023/02/03 02:19:20;;;;;;;4.18;1.60;;;;;;;;;;4986122;28;20022;-74
2023/02/03 02:21:52;;;;;;;9.32;2.75;;;;;;;;;;4927340;29;20044;-74
2023/02/03 02:24:27;;;;;;;6.10;1.75;;;;;;;;;;4924709;29;20626;-74
2023/02/03 02:26:53;;;;;;;5.50;2.13;;;;;;;;;;4960139;28;20026;-74
2023/02/03 02:29:35;;;;;;;4.70;2.00;;;;;;;;;;4984881;28;20058;-74
2023/02/03 02:32:13;;;;;;;6.18;2.00;;;;;;;;;;4984020;28;20129;-74
2023/02/03 02:34:45;;;;;;;4.68;2.25;;;;;;;;;;4984112;28;20109;-74
2023/02/03 02:37:30;;;;;;;7.72;2.40;;;;;;;;;;4982820;28;20030;-74
2023/02/03 02:39:56;;;;;;;8.02;2.22;;;;;;;;;;4984033;28;20092;-74
2023/02/03 02:42:41;;;;;;;8.80;2.42;;;;;;;;;;4985552;28;20117;-74
2023/02/03 02:45:15;;;;;;;5.68;2.13;;;;;;;;;;4983190;28;20113;-74
2023/02/03 02:47:41;;;;;;;7.05;2.40;;;;;;;;;;4981599;28;20037;-74
2023/02/03 02:50:07;;;;;;;5.60;1.92;;;;;;;;;;4980630;28;20030;-74
2023/02/03 02:52:35;;;;;;;6.97;2.70;;;;;;;;;;4978724;28;20026;-74
2023/02/03 02:55:14;;;;;;;11.18;2.33;;;;;;;;;;4980744;28;20113;-73
2023/02/03 02:57:41;;;;;;;5.03;1.92;;;;;;;;;;4978306;28;20026;-74
2023/02/03 03:00:08;;;;;;;4.75;1.92;;;;;;;;;;4978485;28;20088;-74
2023/02/03 03:02:35;;;;;;;4.03;2.03;;;;;;;;;;4979297;28;20057;-74
2023/02/03 03:05:06;;;;;;;7.75;2.60;;;;;;;;;;4975782;28;20126;-74
2023/02/03 03:07:35;;;;;;;5.60;2.63;;;;;;;;;;4982618;28;20038;-74
2023/02/03 03:10:03;;;;;;;6.05;3.10;;;;;;;;;;4984268;28;20209;-74
2023/02/03 03:12:34;;;;;;;7.65;2.40;;;;;;;;;;4982704;28;20109;-74
2023/02/03 03:15:11;;;;;;;7.72;2.72;;;;;;;;;;4982047;28;20023;-74
2023/02/03 03:17:41;;;;;;;8.05;2.50;;;;;;;;;;4976537;28;20054;-73
2023/02/03 03:20:12;;;;;;;6.53;2.75;;;;;;;;;;4982264;28;20442;-74
2023/02/03 03:22:41;;;;;;;6.95;2.53;;;;;;;;;;4982271;28;20037;-74
2023/02/03 03:25:17;;;;;;;5.47;2.55;;;;;;;;;;4981441;28;20177;-74
2023/02/03 03:27:49;;;;;;;6.53;2.20;;;;;;;;;;4977525;28;20073;-74
2023/02/03 03:30:18;;;;;;;6.10;2.50;;;;;;;;;;4977758;28;20022;-74
2023/02/03 03:32:44;;;;;;;4.88;2.35;;;;;;;;;;4984076;28;20144;-74
2023/02/03 03:35:10;;;;;;;6.75;2.53;;;;;;;;;;4981027;28;20034;-73
2023/02/03 03:37:37;;;;;;;4.10;2.13;;;;;;;;;;4981978;28;20037;-74
2023/02/03 03:40:11;;;;;;;4.47;2.13;;;;;;;;;;4983063;28;20030;-74
2023/02/03 03:42:45;;;;;;;5.95;2.50;;;;;;;;;;4978350;28;20076;-73
2023/02/03 03:45:27;;;;;;;7.88;2.38;;;;;;;;;;4979591;28;20022;-73
2023/02/03 03:47:58;;;;;;;3.65;1.92;;;;;;;;;;4980822;28;20035;-74
2023/02/03 03:50:28;;;;;;;6.47;1.95;;;;;;;;;;4975847;28;20129;-74
2023/02/03 03:52:55;;;;;;;5.30;2.03;;;;;;;;;;4974677;28;20038;-74
2023/02/03 03:55:21;;;;;;;7.80;2.83;;;;;;;;;;4978616;28;20037;-74
2023/02/03 03:57:57;;;;;;;7.35;2.28;;;;;;;;;;4978542;28;20426;-74
2023/02/03 04:00:25;;;;;;;8.50;2.25;;;;;;;;;;4979188;28;20654;-73
2023/02/03 04:02:53;;;;;;;7.03;2.15;;;;;;;;;;4977252;28;20523;-74
2023/02/03 04:05:19;;;;;;;4.75;1.67;;;;;;;;;;4976872;28;20121;-73
2023/02/03 04:07:47;;;;;;;8.70;2.10;;;;;;;;;;4977360;28;20303;-73
2023/02/03 04:10:20;;;;;;;6.88;2.08;;;;;;;;;;4978015;28;20043;-73
2023/02/03 04:12:47;;;;;;;6.72;1.88;;;;;;;;;;4978899;28;20081;-74
2023/02/03 04:15:13;;;;;;;4.65;2.00;;;;;;;;;;4978844;28;20041;-73
2023/02/03 04:17:39;;;;;;;10.20;2.47;;;;;;;;;;4972967;28;20101;-74
2023/02/03 04:20:05;;;;;;;2.55;1.90;;;;;;;;;;4975241;28;20113;-74
2023/02/03 04:22:31;;;;;;;8.32;2.10;;;;;;;;;;4971082;28;20102;-73
2023/02/03 04:24:58;;;;;;;4.32;2.10;;;;;;;;;;4975819;28;20060;-74
2023/02/03 04:27:27;;;;;;;5.32;2.05;;;;;;;;;;4970714;28;20398;-74
2023/02/03 04:29:53;;;;;;;6.57;2.05;;;;;;;;;;4973677;28;20072;-74
2023/02/03 04:32:19;;;;;;;6.13;1.83;;;;;;;;;;4976990;28;20049;-73
2023/02/03 04:34:46;;;;;;;5.25;2.03;;;;;;;;;;4974958;28;20031;-73
2023/02/03 04:37:12;;;;;;;7.80;2.35;;;;;;;;;;4977728;28;20034;-74
2023/02/03 04:39:38;;;;;;;5.97;1.98;;;;;;;;;;4978150;28;20060;-73
2023/02/03 04:42:04;;;;;;;6.68;2.00;;;;;;;;;;4972750;28;20106;-74
2023/02/03 04:44:30;;;;;;;5.25;2.35;;;;;;;;;;4976827;28;20030;-74
2023/02/03 04:46:57;;;;;;;3.90;1.75;;;;;;;;;;4975590;28;20138;-74
2023/02/03 04:49:23;;;;;;;7.90;1.92;;;;;;;;;;4975858;28;20045;-74
2023/02/03 04:51:49;;;;;;;5.05;2.15;;;;;;;;;;4974913;28;20033;-74
2023/02/03 04:54:16;;;;;;;6.78;2.30;;;;;;;;;;4978691;28;20106;-74
2023/02/03 04:56:42;;;;;;;7.90;1.92;;;;;;;;;;4978510;28;20026;-73
2023/02/03 04:59:08;;;;;;;7.15;2.08;;;;;;;;;;4979292;28;20479;-74
2023/02/03 05:01:34;;;;;;;7.15;2.75;;;;;;;;;;4971547;28;20562;-74
2023/02/03 05:04:00;;;;;;;7.13;2.28;;;;;;;;;;4976341;28;20106;-74
2023/02/03 05:06:28;;;;;;;8.45;2.33;;;;;;;;;;4975088;28;20069;-74
2023/02/03 05:08:55;;;;;;;4.43;1.92;;;;;;;;;;4974934;28;20493;-74
2023/02/03 05:11:21;;;;;;;5.93;2.10;;;;;;;;;;4981933;28;20157;-74
2023/02/03 05:13:47;;;;;;;4.47;2.22;;;;;;;;;;4978174;28;20145;-74
2023/02/03 05:16:14;;;;;;;3.88;1.98;;;;;;;;;;4975926;28;20026;-74
2023/02/03 05:18:40;;;;;;;4.20;1.80;;;;;;;;;;4978359;28;20030;-74
2023/02/03 05:21:06;;;;;;;5.40;1.98;;;;;;;;;;4979769;28;20609;-74
2023/02/03 05:23:32;;;;;;;7.78;2.47;;;;;;;;;;4980462;28;20133;-74
2023/02/03 05:25:59;;;;;;;5.75;2.00;;;;;;;;;;4978744;28;20176;-74
2023/02/03 05:28:25;;;;;;;6.60;2.22;;;;;;;;;;4979900;28;20038;-74
2023/02/03 05:30:51;;;;;;;5.05;2.10;;;;;;;;;;4977936;28;20022;-74
2023/02/03 05:33:17;;;;;;;5.63;2.20;;;;;;;;;;4978224;28;20141;-74
2023/02/03 05:35:43;;;;;;;6.75;1.60;;;;;;;;;;4975594;28;20054;-74
2023/02/03 05:38:10;;;;;;;6.70;1.73;;;;;;;;;;4972929;28;20621;-74
2023/02/03 05:43:21;;;;;;;4.95;1.85;;;;;;;;;;4977418;28;20079;-74
2023/02/03 05:45:47;;;;;;;4.03;1.73;;;;;;;;;;4976588;28;20022;-74
2023/02/03 05:48:13;;;;;;;6.75;2.40;;;;;;;;;;4980924;28;20749;-74
2023/02/03 05:50:39;;;;;;;6.68;2.60;;;;;;;;;;4980183;28;20129;-74
2023/02/03 05:53:06;;;;;;;4.13;1.73;;;;;;;;;;4970795;28;20110;-74
2023/02/03 05:55:32;;;;;;;4.00;2.10;;;;;;;;;;4978517;28;20097;-74
2023/02/03 05:57:59;;;;;;;8.38;2.20;;;;;;;;;;4979296;28;20030;-74
2023/02/03 06:00:26;;;;;;;2.58;1.80;;;;;;;;;;4978118;28;20065;-74
2023/02/03 06:02:53;;;;;;;5.10;1.83;;;;;;;;;;4994022;28;20109;-74
2023/02/03 06:05:20;;;;;;;6.80;1.92;;;;;;;;;;4980014;28;20026;-74
2023/02/03 06:07:46;;;;;;;2.90;1.75;;;;;;;;;;4980360;28;20295;-74
2023/02/03 06:10:12;;;;;;;6.47;1.95;;;;;;;;;;4977859;28;20031;-74
2023/02/03 06:12:39;;;;;;;4.72;1.83;;;;;;;;;;4978177;28;20132;-74
2023/02/03 06:15:05;;;;;;;7.43;2.00;;;;;;;;;;4977044;28;20053;-75
2023/02/03 06:17:32;;;;;;;4.47;1.50;;;;;;;;;;4979119;28;20041;-74
2023/02/03 06:19:58;;;;;;;5.25;2.13;;;;;;;;;;4977018;28;20088;-74
2023/02/03 06:22:25;;;;;;;6.07;2.30;;;;;;;;;;4978072;28;20217;-74
2023/02/03 06:24:51;;;;;;;3.10;1.60;;;;;;;;;;4978064;28;20030;-75
2023/02/03 06:27:17;;;;;;;6.32;1.63;;;;;;;;;;4976110;28;20096;-74
2023/02/03 06:29:43;;;;;;;5.43;2.17;;;;;;;;;;4979886;28;20060;-74
2023/02/03 06:32:09;;;;;;;2.28;1.80;;;;;;;;;;4976051;28;20061;-74
2023/02/03 06:34:35;;;;;;;6.55;1.80;;;;;;;;;;4979573;28;20038;-74
2023/02/03 06:37:02;;;;;;;4.85;1.88;;;;;;;;;;4977648;28;20105;-74
2023/02/03 06:39:28;;;;;;;5.72;1.77;;;;;;;;;;4977293;28;20113;-74
2023/02/03 06:41:55;;;;;;;3.70;1.73;;;;;;;;;;4978067;28;20026;-75
2023/02/03 06:44:21;;;;;;;5.53;1.77;;;;;;;;;;4993431;28;20026;-74
2023/02/03 06:46:49;;;;;;;4.25;2.08;;;;;;;;;;4980265;28;20494;-74
2023/02/03 06:49:16;;;;;;;5.20;2.00;;;;;;;;;;4978753;28;20527;-74
2023/02/03 06:51:43;;;;;;;5.95;2.25;;;;;;;;;;4979048;28;20023;-75
2023/02/03 06:54:10;;;;;;;2.88;1.70;;;;;;;;;;4975579;28;20034;-74
2023/02/03 06:56:36;;;;;;;2.22;1.52;;;;;;;;;;4975429;28;20038;-74
2023/02/03 06:59:03;;;;;;;4.93;1.42;;;;;;;;;;4977572;28;20041;-74
2023/02/03 07:01:29;;;;;;;6.18;2.00;;;;;;;;;;4972892;28;20043;-75
2023/02/03 07:03:57;;;;;;;5.10;1.60;;;;;;;;;;4977643;28;20113;-74
2023/02/03 07:06:29;;;;;;;3.00;1.80;;;;;;;;;;4974220;28;20026;-74
2023/02/03 07:08:59;;;;;;;4.28;1.85;;;;;;;;;;4976583;28;20697;-74
2023/02/03 07:11:25;;;;;;;4.50;1.92;;;;;;;;;;4979345;28;20018;-74
2023/02/03 07:13:52;;;;;;;3.38;1.67;;;;;;;;;;4978469;28;20113;-74
2023/02/03 07:16:18;;;;;;;2.22;1.48;;;;;;;;;;4988338;28;20368;-74
2023/02/03 07:18:45;;;;;;;2.20;1.55;;;;;;;;;;4977598;28;20117;-74
2023/02/03 07:21:11;;;;;;;4.03;2.25;;;;;;;;;;4975916;28;20085;-74
2023/02/03 07:23:38;;;;;;;4.15;2.10;;;;;;;;;;4980666;28;20018;-74
2023/02/03 07:26:04;;;;;;;2.83;1.92;;;;;;;;;;4975456;28;20026;-74
2023/02/03 07:28:31;;;;;;;2.90;1.58;;;;;;;;;;4979889;28;20589;-74
2023/02/03 07:30:58;;;;;;;3.75;1.63;;;;;;;;;;4978579;28;20060;-74
2023/02/03 07:33:24;;;;;;;3.85;1.60;;;;;;;;;;4976941;28;20039;-74
2023/02/03 07:35:55;;;;;;;3.03;1.50;;;;;;;;;;4978513;28;20114;-74
2023/02/03 07:38:22;;;;;;;4.75;2.03;;;;;;;;;;4992447;28;20376;-74
2023/02/03 07:40:49;;;;;;;5.80;2.30;;;;;;;;;;4980238;28;20073;-74
2023/02/03 07:43:15;;;;;;;4.60;2.42;;;;;;;;;;4973397;28;20050;-74
2023/02/03 07:45:41;;;;;;;4.25;1.88;;;;;;;;;;4975696;28;20027;-74
2023/02/03 07:48:08;;;;;;;4.88;1.95;;;;;;;;;;4971437;28;20216;-74
2023/02/03 07:50:34;;;;;;;5.40;1.75;;;;;;;;;;4972669;28;20065;-75
2023/02/03 07:53:00;;;;;;;5.60;2.00;;;;;;;;;;4976825;28;20077;-75
2023/02/03 07:55:27;;;;;;;2.13;1.50;;;;;;;;;;4975721;28;20705;-75
2023/02/03 07:57:57;;;;;;;6.15;1.92;;;;;;;;;;4980696;28;20062;-76
2023/02/03 08:00:23;;;;;;;3.28;1.58;;;;;;;;;;4976558;28;20018;-76
2023/02/03 08:02:50;;;;;;;4.72;2.03;;;;;;;;;;4973704;28;20022;-75
2023/02/03 08:05:17;;;;;;;3.42;1.55;;;;;;;;;;4978973;28;20446;-75
2023/02/03 08:07:43;;;;;;;3.50;1.73;;;;;;;;;;4974194;28;20027;-75
2023/02/03 08:10:11;;;;;;;3.13;1.85;;;;;;;;;;4979904;28;20106;-75
2023/02/03 08:12:37;;;;;;;2.47;1.40;;;;;;;;;;4989832;28;20849;-76
2023/02/03 08:15:04;;;;;;;3.17;1.60;;;;;;;;;;4979026;28;20080;-75
2023/02/03 08:17:32;;;;;;;2.55;1.50;;;;;;;;;;4974312;28;20029;-75
2023/02/03 08:19:58;;;;;;;5.00;1.77;;;;;;;;;;4974085;28;20058;-75
2023/02/03 08:22:24;;;;;;;7.80;2.55;;;;;;;;;;4978216;28;20102;-76
2023/02/03 08:24:50;;;;;;;3.58;1.60;;;;;;;;;;4977321;28;20109;-74
2023/02/03 08:27:20;;;;;;;3.97;1.45;;;;;;;;;;4980679;28;20109;-76
2023/02/03 08:29:46;;;;;;;2.45;1.33;;;;;;;;;;4975749;28;20101;-75
2023/02/03 08:32:14;;;;;;;4.53;1.38;;;;;;;;;;4979297;28;20051;-75
2023/02/03 08:34:41;;;;;;;5.38;1.50;;;;;;;;;;4976952;28;20073;-75
2023/02/03 08:37:07;;;;;;;3.03;1.65;;;;;;;;;;4978542;28;20974;-75
2023/02/03 08:39:33;;;;;;;6.75;2.13;;;;;;;;;;4976373;28;20101;-75
2023/02/03 08:42:00;;;;;;;4.97;2.03;;;;;;;;;;4977981;28;20114;-75
2023/02/03 08:44:26;;;;;;;5.20;1.77;;;;;;;;;;4976880;28;20029;-75
2023/02/03 08:46:53;;;;;;;3.80;1.85;;;;;;;;;;4980414;28;20100;-74
2023/02/03 08:49:20;;;;;;;2.88;1.80;;;;;;;;;;4984725;28;20069;-75
2023/02/03 08:51:47;;;;;;;3.08;1.70;;;;;;;;;;4977382;28;20018;-75
2023/02/03 08:54:13;;;;;;;4.75;1.80;;;;;;;;;;4972125;28;20027;-75
2023/02/03 08:56:40;;;;;;;7.35;1.83;;;;;;;;;;4978982;28;20407;-74
2023/02/03 08:59:06;;;;;;;2.58;1.75;;;;;;;;;;4979142;28;20033;-75
2023/02/03 09:01:33;;;;;;;2.53;1.50;;;;;;;;;;4983927;28;20041;-75
2023/02/03 09:04:03;;;;;;;3.28;2.15;;;;;;;;;;4979817;28;20720;-76
2023/02/03 09:06:29;;;;;;;4.25;1.88;;;;;;;;;;4990887;28;20072;-75
2023/02/03 09:08:56;;;;;;;3.75;2.05;;;;;;;;;;4978659;28;20034;-75
2023/02/03 09:11:22;;;;;;;7.18;1.70;;;;;;;;;;4982017;28;20125;-75
2023/02/03 09:13:49;;;;;;;3.28;1.73;;;;;;;;;;4977698;28;20073;-76
2023/02/03 09:16:16;;;;;;;6.13;1.80;;;;;;;;;;4983391;28;20356;-76
2023/02/03 09:18:42;;;;;;;5.53;2.00;;;;;;;;;;4976983;28;20412;-75
2023/02/03 09:21:10;;;;;;;3.58;1.80;;;;;;;;;;4977966;28;20113;-74
2023/02/03 09:23:36;;;;;;;3.83;1.63;;;;;;;;;;4974989;28;20089;-75
2023/02/03 09:26:03;;;;;;;4.80;1.73;;;;;;;;;;4982192;28;20495;-76
2023/02/03 09:28:30;;;;;;;3.03;1.75;;;;;;;;;;4975668;28;20114;-75
2023/02/03 09:33:46;;;;;;;2.67;1.48;;;;;;;;;;4941622;28;20050;-76
2023/02/03 09:36:12;;;;;;;2.85;1.48;;;;;;;;;;4942617;28;20033;-75
2023/02/03 09:38:39;;;;;;;9.77;1.98;;;;;;;;;;4937598;28;20474;-76
2023/02/03 09:41:19;;;;;;;4.85;1.80;;;;;;;;;;4938786;28;20048;-75
2023/02/03 09:43:48;;;;;;;3.55;1.25;;;;;;;;;;4941348;28;20030;-75
2023/02/03 09:46:17;;;;;;;5.75;2.00;;;;;;;;;;4944216;28;20695;-75
2023/02/03 09:48:46;;;;;;;3.55;1.50;;;;;;;;;;4943641;28;20114;-74
2023/02/03 09:51:33;;;;;;;1.98;1.30;;;;;;;;;;4939074;28;20118;-75
2023/02/03 09:54:02;;;;;;;2.33;1.60;;;;;;;;;;4939754;28;20110;-75
2023/02/03 09:56:33;;;;;;;4.72;2.25;;;;;;;;;;4942218;28;20031;-75
2023/02/03 09:59:00;;;;;;;3.40;1.58;;;;;;;;;;4938498;28;20106;-74
2023/02/03 10:01:30;;;;;;;3.67;2.17;;;;;;;;;;4940491;28;20498;-75
2023/02/03 10:19:20;;;;;;;5.07;1.85;;;;;;;;;;5178619;27;20470;-75
2023/02/03 10:21:49;;;;;;;4.00;1.95;;;;;;;;;;5164749;27;20031;-71
2023/02/03 10:24:18;;;;;;;4.88;1.90;;;;;;;;;;5151035;27;20026;-73
2023/02/03 10:26:44;;;;;;;2.20;1.58;;;;;;;;;;5156121;27;20390;-71
2023/02/03 10:29:13;;;;;;;3.10;1.63;;;;;;;;;;5150347;27;20019;-72
2023/02/03 10:31:40;;;;;;;4.10;1.70;;;;;;;;;;5133954;27;20054;-72
2023/02/03 10:34:09;;;;;;;4.53;1.65;;;;;;;;;;5152914;27;20023;-71
2023/02/03 10:36:42;;;;;;;2.80;1.73;;;;;;;;;;5157102;27;20371;-73
2023/02/03 10:39:21;;;;;;;3.90;1.60;;;;;;;;;;5159339;27;20030;-71
2023/02/03 10:41:47;;;;;;;3.00;1.70;;;;;;;;;;5158527;27;20084;-72
2023/02/03 10:44:14;;;;;;;3.53;1.60;;;;;;;;;;5152959;27;20723;-72
2023/02/03 10:46:41;;;;;;;3.85;2.00;;;;;;;;;;5151865;27;20025;-73
2023/02/03 10:49:09;;;;;;;3.28;1.58;;;;;;;;;;5161894;27;20010;-72
2023/02/03 10:51:45;;;;;;;3.75;1.70;;;;;;;;;;5160916;27;20094;-76
2023/02/03 10:54:28;;;;;;;2.72;1.70;;;;;;;;;;5165298;27;20018;-72
2023/02/03 10:56:56;;;;;;;3.50;1.70;;;;;;;;;;5155432;27;20790;-72
2023/02/03 10:59:28;;;;;;;3.33;1.52;;;;;;;;;;5161893;27;20076;-73
2023/02/03 11:01:54;;;;;;;;;;;;;;;;;;5154489;27;20440;-72
2023/02/03 11:04:40;;;;;;;3.80;1.63;;;;;;;;;;5142801;27;20370;-71
2023/02/03 11:07:22;;;;;;;4.15;1.90;;;;;;;;;;5149805;27;20030;-72
2023/02/03 11:09:48;;;;;;;;;;;;;;;;;;5159510;27;20175;-71
2023/02/03 11:12:16;;;;;;;3.60;1.58;;;;;;;;;;5154831;27;19907;-72
2023/02/03 11:14:44;;;;;;;3.53;1.50;;;;;;;;;;5152149;27;20026;-71
2023/02/03 11:17:31;;;;;;;7.07;1.95;;;;;;;;;;5147536;27;20500;-71
2023/02/03 11:20:14;;;;;;;2.53;1.63;;;;;;;;;;5146083;27;20607;-72
2023/02/03 11:22:42;;;;;;;2.95;1.50;;;;;;;;;;5140264;27;20034;-72
2023/02/03 11:25:18;;;;;;;4.55;1.80;;;;;;;;;;5138891;27;20656;-72
2023/02/03 11:27:45;;;;;;;3.47;1.65;;;;;;;;;;5140918;27;20076;-72
2023/02/03 11:30:15;;;;;;;5.13;1.70;;;;;;;;;;5141577;27;20027;-71
2023/02/03 11:32:42;;;;;;;5.90;1.80;;;;;;;;;;5135280;27;20530;-72
2023/02/03 11:35:17;;;;;;;3.95;2.20;;;;;;;;;;5139263;27;20030;-72
2023/02/03 11:37:44;;;;;;;3.78;1.73;;;;;;;;;;5135034;27;20066;-72
2023/02/03 11:40:11;;;;;;;8.05;1.90;;;;;;;;;;5135956;27;20022;-72
2023/02/03 11:42:40;;;;;;;5.22;1.73;;;;;;;;;;5139272;27;20094;-77
2023/02/03 11:45:18;;;;;;;2.83;1.92;;;;;;;;;;5135950;27;20015;-72
2023/02/03 11:47:46;;;;;;;3.60;2.10;;;;;;;;;;5141804;27;20042;-78
2023/02/03 11:50:21;;;;;;;4.22;2.05;;;;;;;;;;5138900;27;20114;-78
2023/02/03 11:52:55;;;;;;;2.47;1.42;;;;;;;;;;5139827;27;20101;-72
2023/02/03 11:55:31;;;;;;;4.50;1.40;;;;;;;;;;5136097;27;20054;-72
2023/02/03 11:58:04;;;;;;;5.35;1.83;;;;;;;;;;5134737;27;20095;-73
2023/02/03 12:00:51;;;;;;;5.70;2.25;;;;;;;;;;5137889;27;20035;-72
2023/02/03 12:03:35;;;;;;;3.60;1.70;;;;;;;;;;5120946;27;20774;-73
2023/02/03 12:06:02;;;;;;;8.23;1.98;;;;;;;;;;5138838;27;20132;-73
2023/02/03 12:08:37;;;;;;;4.45;1.67;;;;;;;;;;5139391;27;20025;-72
2023/02/03 12:11:12;;;;;;;7.85;1.80;;;;;;;;;;5138150;27;20507;-72
2023/02/03 12:13:51;;;;;;;4.15;1.65;;;;;;;;;;5132581;27;20019;-72
2023/02/03 12:16:17;;;;;;;2.70;1.55;;;;;;;;;;5134026;27;20133;-72
2023/02/03 12:19:06;;;;;;;3.92;1.70;;;;;;;;;;5140824;27;20093;-72
2023/02/03 12:21:36;;;;;;;4.43;1.58;;;;;;;;;;5142246;27;20067;-72
2023/02/03 12:24:07;;;;;;;4.22;1.75;;;;;;;;;;5143598;27;20054;-72
2023/02/03 12:26:33;;;;;;;4.43;1.70;;;;;;;;;;5137947;27;20037;-71
2023/02/03 12:29:10;;;;;;;2.55;1.30;;;;;;;;;;5138274;27;20073;-72
2023/02/03 12:31:40;;;;;;;1.85;1.20;;;;;;;;;;5141913;27;20093;-72
2023/02/03 12:34:15;;;;;;;2.40;1.42;;;;;;;;;;5144327;27;20101;-71
2023/02/03 12:37:04;;;;;;;2.35;1.42;;;;;;;;;;5138900;27;20049;-72
2023/02/03 12:39:30;;;;;;;2.63;1.67;;;;;;;;;;5123219;27;20840;-71
2023/02/03 12:42:02;;;;;;;4.60;1.83;;;;;;;;;;5139425;27;20339;-72
2023/02/03 12:44:40;;;;;;;3.72;1.70;;;;;;;;;;5135192;27;20387;-71
2023/02/03 12:47:13;;;;;;;3.95;1.73;;;;;;;;;;5139689;27;20368;-72
2023/02/03 12:49:48;;;;;;;4.18;1.63;;;;;;;;;;5141309;27;20073;-72
2023/02/03 12:52:14;;;;;;;4.43;1.70;;;;;;;;;;5135805;27;20156;-71
2023/02/03 12:54:44;;;;;;;3.33;1.60;;;;;;;;;;5134470;27;20054;-71
2023/02/03 12:57:28;;;;;;;6.00;1.70;;;;;;;;;;5137522;27;20111;-71
2023/02/03 13:00:17;;;;;;;3.28;1.73;;;;;;;;;;5135012;27;20023;-71
2023/02/03 13:03:09;;;;;;;2.40;1.20;;;;;;;;;;5133507;27;20031;-71
2023/02/03 13:05:49;;;;;;;5.20;1.70;;;;;;;;;;5126379;27;20027;-71
2023/02/03 13:08:22;;;;;;;3.92;1.60;;;;;;;;;;5138784;27;20042;-71
2023/02/03 13:10:57;;;;;;;3.88;2.03;;;;;;;;;;5139317;27;20034;-73
2023/02/03 13:13:31;;;;;;;1.90;1.38;;;;;;;;;;5141518;27;20050;-75
2023/02/03 13:15:58;;;;;;;2.95;1.40;;;;;;;;;;5138194;27;20070;-79
2023/02/03 13:18:28;;;;;;;2.97;1.42;;;;;;;;;;5142509;27;20045;-73
2023/02/03 13:20:54;;;;;;;3.78;1.92;;;;;;;;;;5138040;27;20019;-72
2023/02/03 13:23:21;;;;;;;3.05;1.23;;;;;;;;;;5135057;27;20015;-72
2023/02/03 13:26:06;;;;;;;4.07;1.77;;;;;;;;;;5141524;27;20023;-71
2023/02/03 13:28:50;;;;;;;3.33;1.67;;;;;;;;;;5135907;27;20027;-71
2023/02/03 13:31:25;;;;;;;4.75;2.35;;;;;;;;;;5141211;27;20467;-71
2023/02/03 13:34:11;;;;;;;4.53;1.95;;;;;;;;;;5139631;27;20141;-75
2023/02/03 13:36:57;;;;;;;3.63;1.58;;;;;;;;;;5132121;27;20098;-71
2023/02/03 13:39:26;;;;;;;3.60;1.80;;;;;;;;;;5135069;27;20031;-71
2023/02/03 13:42:11;;;;;;;7.30;1.83;;;;;;;;;;5124466;27;20113;-71
2023/02/03 13:44:38;;;;;;;2.65;1.60;;;;;;;;;;5139932;27;20027;-71
2023/02/03 13:47:05;;;;;;;2.70;1.52;;;;;;;;;;5138417;27;20102;-71
2023/02/03 13:49:32;;;;;;;1.85;1.38;;;;;;;;;;5134149;27;20442;-71
2023/02/03 13:51:59;;;;;;;2.58;1.60;;;;;;;;;;5132560;27;20015;-71
2023/02/03 13:54:28;;;;;;;2.22;1.30;;;;;;;;;;5132010;27;20096;-75
2023/02/03 13:56:57;;;;;;;3.90;1.73;;;;;;;;;;5136827;27;20099;-71
2023/02/03 13:59:31;;;;;;;5.35;1.40;;;;;;;;;;5134393;27;20030;-73
2023/02/03 14:02:16;;;;;;;5.28;1.58;;;;;;;;;;5139691;27;20482;-75
2023/02/03 14:04:45;;;;;;;5.15;1.90;;;;;;;;;;5138035;27;20155;-72
2023/02/03 14:07:32;;;;;;;5.07;2.28;;;;;;;;;;5138777;27;20018;-72
2023/02/03 14:10:07;;;;;;;6.22;1.60;;;;;;;;;;5134265;27;20034;-71
2023/02/03 14:12:35;;;;;;;3.35;1.85;;;;;;;;;;5115905;27;20011;-72
2023/02/03 14:15:12;;;;;;;4.28;1.67;;;;;;;;;;5139144;27;20027;-72
2023/02/03 14:17:41;;;;;;;3.33;1.75;;;;;;;;;;5138083;27;20546;-71
2023/02/03 14:20:26;;;;;;;2.50;1.70;;;;;;;;;;5140586;27;20118;-71
2023/02/03 14:22:54;;;;;;;2.80;1.65;;;;;;;;;;5135457;27;20019;-71
2023/02/03 14:25:20;;;;;;;3.60;1.52;;;;;;;;;;5130403;27;20023;-71
2023/02/03 14:27:48;;;;;;;5.70;2.40;;;;;;;;;;5116302;27;20575;-71
2023/02/03 14:30:18;;;;;;;4.55;1.77;;;;;;;;;;5137643;27;20054;-71
2023/02/03 14:32:52;;;;;;;4.75;2.05;;;;;;;;;;5141297;27;20046;-71
2023/02/03 14:35:23;;;;;;;2.88;1.55;;;;;;;;;;5134686;27;20019;-73
2023/02/03 14:37:53;;;;;;;4.90;1.77;;;;;;;;;;5138486;27;20031;-72
2023/02/03 14:40:32;;;;;;;5.95;2.13;;;;;;;;;;5142641;27;20054;-73
2023/02/03 14:43:16;;;;;;;8.48;2.53;;;;;;;;;;5135269;27;20877;-73
2023/02/03 14:45:43;;;;;;;3.65;1.88;;;;;;;;;;5140506;27;20023;-73
2023/02/03 14:48:15;;;;;;;6.43;2.80;;;;;;;;;;5143155;27;20018;-74
2023/02/03 14:50:51;;;;;;;4.95;1.88;;;;;;;;;;5139977;27;20073;-73
2023/02/03 14:53:29;;;;;;;5.55;2.00;;;;;;;;;;5138266;27;20027;-73
2023/02/03 14:56:01;;;;;;;3.95;2.00;;;;;;;;;;5138837;27;20054;-73
2023/02/03 14:58:32;;;;;;;4.57;1.83;;;;;;;;;;5139227;27;20130;-72
2023/02/03 15:00:59;;;;;;;3.45;1.98;;;;;;;;;;5143173;27;20080;-76
2023/02/03 15:03:28;;;;;;;9.80;3.05;;;;;;;;;;5144599;27;20627;-72
2023/02/03 15:05:56;;;;;;;6.07;1.98;;;;;;;;;;5141908;27;20030;-72
2023/02/03 15:08:45;;;;;;;8.00;2.78;;;;;;;;;;5139597;27;20023;-71
2023/02/03 15:11:31;;;;;;;15.15;2.90;;;;;;;;;;5139417;27;20035;-72
2023/02/03 15:14:14;;;;;;;10.95;2.70;;;;;;;;;;5137808;27;20386;-71
2023/02/03 15:16:42;;;;;;;10.27;2.33;;;;;;;;;;5140169;27;20019;-71
2023/02/03 15:19:19;;;;;;;11.25;2.42;;;;;;;;;;5139853;27;20099;-72